createdAt,value
2019-05-16T05:31:02.657Z,64.67
2019-05-16T05:33:34.537Z,60.10
2019-05-16T06:10:52.394Z,45.63
2019-05-16T06:13:24.683Z,41.20
2019-05-16T06:15:57.517Z,38.13
2019-05-16T06:18:32.221Z,34.57
2019-05-16T06:21:06.092Z,32.63
2019-05-16T06:23:40.134Z,31.70
2019-05-16T06:26:12.284Z,33.73
2019-05-16T06:28:44.339Z,29.73
2019-05-16T06:31:22.029Z,33.57
2019-05-16T06:33:55.764Z,30.33
2019-05-16T06:36:31.222Z,28.57
2019-05-16T06:39:07.007Z,25.20
2019-05-16T06:41:40.162Z,18.90
2019-05-16T06:44:14.281Z,15.70
2019-05-16T06:47:00.371Z,16.23
2019-05-16T06:49:19.814Z,15.30
2019-05-16T06:51:55.149Z,11.87
2019-05-16T06:54:29.889Z,13.27
2019-05-16T06:57:02.025Z,15.43
2019-05-16T06:59:36.332Z,12.83
2019-05-16T07:02:10.861Z,12.80
2019-05-16T07:04:42.052Z,10.97
2019-05-16T07:07:15.251Z,11.57
2019-05-16T07:10:00.168Z,11.80
2019-05-16T07:12:25.178Z,10.97
2019-05-16T07:15:01.246Z,11.53
2019-05-16T07:17:39.698Z,12.33
2019-05-16T07:20:13.162Z,11.17
2019-05-16T07:22:50.290Z,11.93
2019-05-16T07:25:31.701Z,11.90
2019-05-16T07:28:05.651Z,12.00
2019-05-16T07:30:40.698Z,9.70
2019-05-16T07:33:11.775Z,10.03
2019-05-16T07:35:43.591Z,9.40
2019-05-16T07:38:20.031Z,10.33
2019-05-16T07:40:51.598Z,10.93
2019-05-16T07:43:26.258Z,11.80
2019-05-16T07:46:00.223Z,10.37
2019-05-16T07:48:35.720Z,12.27
2019-05-16T07:51:11.043Z,10.67
2019-05-16T07:53:51.907Z,11.37
2019-05-16T07:56:36.126Z,10.33
2019-05-16T07:59:25.362Z,11.27
2019-05-16T08:02:02.963Z,11.13
2019-05-16T08:04:45.395Z,12.07
2019-05-16T08:07:25.431Z,10.97
2019-05-16T08:09:59.741Z,9.90
2019-05-16T08:12:33.021Z,10.73
2019-05-16T08:15:12.698Z,9.90
2019-05-16T08:17:51.259Z,10.77
2019-05-16T08:20:24.456Z,10.93
2019-05-16T08:23:00.907Z,11.07
2019-05-16T08:25:50.451Z,10.57
2019-05-16T08:28:24.656Z,11.10
2019-05-16T08:30:56.562Z,11.67
2019-05-16T08:33:34.777Z,11.43
2019-05-16T08:36:11.103Z,11.13
2019-05-16T08:38:47.001Z,10.77
2019-05-16T08:41:24.423Z,11.17
2019-05-16T08:44:01.230Z,11.00
2019-05-16T08:46:43.562Z,11.80
2019-05-16T08:49:16.099Z,19.90
2019-05-16T08:51:53.148Z,15.07
2019-05-16T08:54:27.247Z,8.97
2019-05-16T08:57:20.809Z,11.63
2019-05-16T08:59:44.356Z,18.37
2019-05-16T09:02:33.526Z,11.90
2019-05-16T09:05:05.163Z,15.23
2019-05-16T09:07:36.452Z,13.00
2019-05-16T09:10:42.660Z,18.87
2019-05-16T09:12:43.660Z,19.47
2019-05-16T09:15:17.059Z,17.23
2019-05-16T09:17:49.085Z,19.17
2019-05-16T09:20:21.074Z,20.73
2019-05-16T09:22:52.934Z,18.13
2019-05-16T09:25:27.429Z,19.50
2019-05-16T09:27:58.687Z,17.57
2019-05-16T09:30:30.339Z,18.60
2019-05-16T09:33:02.119Z,19.03
2019-05-16T09:35:37.020Z,19.17
2019-05-16T09:38:08.126Z,20.97
2019-05-16T09:40:39.877Z,20.17
2019-05-16T09:43:11.658Z,21.13
2019-05-16T09:45:43.400Z,18.53
2019-05-16T09:48:18.433Z,21.80
2019-05-16T09:50:49.483Z,21.37
2019-05-16T09:53:21.155Z,19.00
2019-05-16T09:55:53.155Z,17.57
2019-05-16T09:58:27.545Z,16.77
2019-05-16T10:00:59.432Z,19.37
2019-05-16T10:03:31.121Z,17.47
2019-05-16T10:06:02.963Z,16.67
2019-05-16T10:08:37.446Z,16.47
2019-05-16T10:11:09.540Z,17.77
2019-05-16T10:13:41.323Z,19.27
2019-05-16T10:16:13.077Z,19.33
2019-05-16T10:18:47.374Z,20.27
2019-05-16T10:21:20.664Z,20.87
2019-05-16T10:23:51.762Z,19.47
2019-05-16T10:26:23.546Z,15.77
2019-05-16T10:28:58.397Z,17.53
2019-05-16T10:31:41.342Z,18.23
2019-05-16T10:34:07.432Z,17.17
2019-05-16T10:36:38.747Z,16.37
2019-05-16T10:39:10.621Z,18.03
2019-05-16T10:41:42.941Z,18.63
2019-05-16T10:44:17.229Z,20.10
2019-05-16T10:46:48.502Z,18.43
2019-05-16T10:49:33.390Z,17.93
2019-05-16T10:51:54.032Z,22.70
2019-05-16T10:54:27.590Z,22.30
2019-05-16T10:56:59.460Z,19.40
2019-05-16T11:02:07.560Z,20.00
2019-05-16T11:04:53.845Z,18.67
2019-05-16T11:07:13.122Z,17.80
2019-05-16T11:09:55.785Z,17.20
2019-05-16T11:12:20.541Z,17.60
2019-05-16T11:14:51.799Z,17.37
2019-05-16T11:17:27.650Z,18.83
2019-05-16T11:19:58.409Z,19.20
2019-05-16T11:22:32.285Z,19.30
2019-05-16T11:25:20.247Z,16.20
2019-05-16T11:27:39.177Z,16.67
2019-05-16T11:30:13.579Z,15.73
2019-05-16T11:32:46.913Z,18.70
2019-05-16T11:35:19.313Z,17.43
2019-05-16T11:37:52.013Z,15.27
2019-05-16T11:40:24.414Z,15.37
2019-05-16T11:43:06.675Z,15.77
2019-05-16T11:45:29.527Z,18.07
2019-05-16T11:48:01.273Z,16.90
2019-05-16T11:50:36.988Z,19.53
2019-05-16T11:53:07.544Z,18.73
2019-05-16T11:55:51.899Z,20.40
2019-05-16T11:58:12.845Z,21.63
2019-05-16T12:00:44.626Z,20.77
2019-05-16T12:03:17.198Z,20.33
2019-05-16T12:05:49.044Z,19.47
2019-05-16T12:08:21.792Z,21.63
2019-05-16T12:10:53.866Z,20.23
2019-05-16T12:13:32.374Z,19.47
2019-05-16T12:15:59.172Z,21.57
2019-05-16T12:18:31.520Z,19.70
2019-05-16T12:21:03.269Z,22.30
2019-05-16T12:23:37.268Z,21.17
2019-05-16T12:26:10.630Z,19.40
2019-05-16T12:28:42.270Z,18.37
2019-05-16T12:31:17.127Z,20.93
2019-05-16T12:33:48.063Z,22.93
2019-05-16T12:36:21.443Z,21.37
2019-05-16T12:38:57.586Z,21.17
2019-05-16T12:41:29.376Z,23.47
2019-05-16T12:44:01.114Z,21.97
2019-05-16T12:46:32.879Z,21.13
2019-05-16T12:49:07.028Z,21.63
2019-05-16T12:51:38.255Z,22.03
2019-05-16T12:54:10.000Z,20.50
2019-05-16T12:56:41.755Z,22.23
2019-05-16T12:59:20.582Z,21.03
2019-05-16T13:01:48.264Z,21.93
2019-05-16T13:04:20.385Z,21.63
2019-05-16T13:06:52.130Z,20.97
2019-05-16T13:09:26.378Z,18.87
2019-05-16T13:11:57.822Z,19.97
2019-05-16T13:14:29.872Z,21.97
2019-05-16T13:17:01.638Z,21.90
2019-05-16T13:19:34.690Z,21.33
2019-05-16T13:22:07.693Z,21.20
2019-05-16T13:24:39.250Z,21.40
2019-05-16T13:27:11.126Z,19.53
2019-05-16T13:29:47.498Z,20.97
2019-05-16T13:32:18.074Z,29.40
2019-05-16T13:34:49.962Z,23.83
2019-05-16T13:37:23.199Z,19.43
2019-05-16T13:39:56.885Z,20.20
2019-05-16T13:42:28.787Z,71.47
2019-05-16T13:45:01.382Z,21.83
2019-05-16T13:47:33.237Z,17.37
2019-05-16T13:50:12.240Z,14.50
2019-05-16T13:52:41.636Z,16.30
2019-05-16T13:55:16.734Z,15.10
2019-05-16T13:57:48.188Z,11.87
2019-05-16T14:00:20.880Z,12.33
2019-05-16T14:02:52.441Z,12.27
2019-05-16T14:05:26.627Z,13.13
2019-05-16T14:07:57.738Z,14.03
2019-05-16T14:10:30.020Z,15.20
2019-05-16T14:13:02.214Z,14.93
2019-05-16T14:15:36.558Z,15.03
2019-05-16T14:18:07.970Z,14.77
2019-05-16T14:20:40.227Z,14.73
2019-05-16T14:23:11.989Z,15.50
2019-05-16T14:25:48.171Z,15.53
2019-05-16T14:28:19.161Z,15.97
2019-05-16T14:30:50.907Z,15.73
2019-05-16T14:33:22.687Z,17.13
2019-05-16T14:35:56.392Z,15.40
2019-05-16T14:38:27.805Z,16.03
2019-05-16T14:41:00.516Z,15.27
2019-05-16T14:43:32.247Z,14.33
2019-05-16T14:46:07.050Z,14.43
2019-05-16T14:48:37.284Z,15.43
2019-05-16T14:51:10.238Z,16.27
2019-05-16T14:53:42.033Z,13.50
2019-05-16T14:56:15.201Z,10.37
2019-05-16T14:58:48.761Z,10.33
2019-05-16T15:01:23.388Z,11.97
2019-05-16T15:03:56.511Z,11.20
2019-05-16T15:06:28.794Z,11.63
2019-05-16T15:09:00.556Z,10.50
2019-05-16T15:11:33.780Z,11.67
2019-05-16T15:14:07.060Z,12.60
2019-05-16T15:16:39.167Z,11.77
2019-05-16T15:19:10.947Z,13.30
2019-05-16T15:21:42.702Z,11.83
2019-05-16T15:24:17.523Z,11.27
2019-05-16T15:26:47.997Z,17.50
2019-05-16T15:29:19.761Z,21.23
2019-05-16T15:31:51.527Z,64.57
2019-05-16T15:34:24.152Z,24.17
2019-05-16T15:36:56.474Z,14.30
2019-05-16T15:39:29.259Z,14.73
2019-05-16T15:42:01.970Z,16.40
2019-05-16T15:44:33.818Z,16.77
2019-05-16T15:47:08.118Z,24.13
2019-05-16T15:49:38.836Z,16.17
2019-05-16T15:52:11.509Z,13.70
2019-05-16T15:54:45.013Z,13.90
2019-05-16T15:57:17.629Z,13.80
2019-05-16T15:59:49.509Z,17.87
2019-05-16T16:02:21.271Z,16.50
2019-05-16T16:04:53.033Z,20.40
2019-05-16T16:07:27.078Z,22.43
2019-05-16T16:09:58.389Z,63.67
2019-05-16T16:12:30.193Z,25.53
2019-05-16T16:15:02.244Z,20.33
2019-05-16T16:17:37.687Z,22.33
2019-05-16T16:20:10.350Z,25.97
2019-05-16T16:22:41.768Z,25.33
2019-05-16T16:25:13.544Z,41.50
2019-05-16T16:27:45.332Z,35.50
2019-05-16T16:30:18.674Z,33.67
2019-05-16T16:32:50.964Z,15.20
2019-05-16T16:35:23.085Z,17.03
2019-05-16T16:37:57.311Z,64.40
2019-05-16T16:40:28.835Z,42.23
2019-05-16T16:43:01.339Z,56.37
2019-05-16T16:45:32.913Z,34.00
2019-05-16T16:48:07.319Z,68.90
2019-05-16T16:50:38.161Z,68.87
2019-05-16T16:53:10.166Z,43.80
2019-05-16T16:55:42.154Z,54.60
2019-05-16T16:58:14.207Z,41.57
2019-05-16T17:00:47.743Z,24.37
2019-05-16T17:03:19.712Z,25.13
2019-05-16T17:05:51.706Z,22.73
2019-05-16T17:08:23.546Z,25.47
2019-05-16T17:10:57.573Z,20.03
2019-05-16T17:13:30.411Z,17.17
2019-05-16T17:16:02.271Z,22.33
2019-05-16T17:18:36.744Z,24.80
2019-05-16T17:21:08.212Z,25.57
2019-05-16T17:23:40.374Z,29.30
2019-05-16T17:26:12.048Z,40.47
2019-05-16T17:28:46.788Z,33.23
2019-05-16T17:31:18.828Z,26.23
2019-05-16T17:33:50.641Z,28.03
2019-05-16T17:36:22.388Z,38.87
2019-05-16T17:38:54.247Z,41.60
2019-05-16T17:41:27.337Z,49.87
2019-05-16T17:43:59.563Z,75.23
2019-05-16T17:46:36.854Z,66.93
2019-05-16T17:49:07.458Z,61.40
2019-05-16T17:51:39.478Z,55.57
2019-05-16T17:54:11.243Z,31.03
2019-05-16T17:56:44.232Z,30.50
2019-05-16T17:59:17.125Z,39.77
2019-05-16T18:01:48.910Z,44.60
2019-05-16T18:04:20.675Z,50.90
2019-05-16T18:06:52.422Z,34.30
2019-05-16T18:09:24.250Z,78.47
2019-05-16T18:11:57.438Z,37.00
2019-05-16T18:14:29.292Z,34.43
2019-05-16T18:17:02.564Z,32.73
2019-05-16T18:19:34.325Z,52.73
2019-05-16T18:22:08.170Z,83.27
2019-05-16T18:24:39.728Z,50.70
2019-05-16T18:27:11.478Z,23.10
2019-05-16T18:29:43.244Z,13.37
2019-05-16T18:32:17.068Z,20.07
2019-05-16T18:34:48.528Z,15.93
2019-05-16T18:37:20.284Z,22.53
2019-05-16T18:39:53.312Z,22.20
2019-05-16T18:42:27.483Z,18.50
2019-05-16T18:44:58.792Z,17.17
2019-05-16T18:47:30.758Z,26.13
2019-05-16T18:50:02.531Z,28.97
2019-05-16T18:52:37.448Z,23.63
2019-05-16T18:55:11.170Z,20.83
2019-05-16T18:57:42.830Z,22.80
2019-05-16T19:00:17.801Z,22.63
2019-05-16T19:02:49.996Z,26.40
2019-05-16T19:05:42.419Z,63.40
2019-05-16T19:08:16.196Z,40.90
2019-05-16T19:10:48.440Z,59.60
2019-05-16T19:13:20.098Z,37.87
2019-05-16T19:15:52.007Z,40.63
2019-05-16T19:18:23.760Z,40.57
2019-05-16T19:20:57.274Z,27.33
2019-05-16T19:23:32.569Z,21.73
2019-05-16T19:26:07.310Z,21.60
2019-05-16T19:28:40.155Z,22.77
2019-05-16T19:31:12.972Z,36.13
2019-05-16T19:33:48.557Z,34.33
2019-05-16T19:36:20.297Z,33.90
2019-05-16T19:38:51.937Z,31.57
2019-05-16T19:41:29.511Z,31.23
2019-05-16T19:44:13.499Z,32.33
2019-05-16T19:46:41.685Z,33.87
2019-05-16T19:49:15.519Z,29.33
2019-05-16T19:51:49.080Z,28.77
2019-05-16T19:54:27.010Z,32.23
2019-05-16T19:57:07.148Z,28.10
2019-05-16T19:59:39.238Z,35.30
2019-05-16T20:02:10.657Z,32.90
2019-05-16T20:04:46.935Z,32.47
2019-05-16T20:07:18.275Z,28.20
2019-05-16T20:09:52.691Z,25.63
2019-05-16T20:12:26.188Z,26.30
2019-05-16T20:15:08.228Z,30.93
2019-05-16T20:17:50.945Z,27.63
2019-05-16T20:20:12.547Z,27.57
2019-05-16T20:22:49.097Z,27.87
2019-05-16T20:25:27.160Z,29.40
2019-05-16T20:28:03.753Z,30.43
2019-05-16T20:30:37.139Z,30.97
2019-05-16T20:33:17.885Z,35.33
2019-05-16T20:35:53.234Z,27.20
2019-05-16T20:38:27.546Z,27.03
2019-05-16T20:41:04.118Z,25.87
2019-05-16T20:43:36.907Z,26.33
2019-05-16T20:46:09.719Z,26.03
2019-05-16T20:48:49.314Z,27.10
2019-05-16T20:51:21.083Z,26.53
2019-05-16T20:53:52.822Z,26.13
2019-05-16T20:56:26.546Z,25.30
2019-05-16T20:59:02.573Z,31.43
2019-05-16T21:01:35.894Z,34.63
2019-05-16T21:04:11.393Z,44.77
2019-05-16T21:07:00.017Z,38.40
2019-05-16T21:09:18.413Z,38.00
2019-05-16T21:11:50.238Z,37.23
2019-05-16T21:14:26.928Z,35.07
2019-05-16T21:17:03.879Z,37.60
2019-05-16T21:19:40.089Z,37.17
2019-05-16T21:22:16.277Z,36.73
2019-05-16T21:24:57.142Z,39.27
2019-05-16T21:27:38.005Z,37.30
2019-05-16T21:30:10.655Z,34.80
2019-05-16T21:32:56.535Z,33.83
2019-05-16T21:35:31.808Z,34.03
2019-05-16T21:38:08.760Z,36.90
2019-05-16T21:40:41.424Z,35.67
2019-05-16T21:43:16.834Z,38.50
2019-05-16T21:45:51.699Z,38.73
2019-05-16T21:48:27.453Z,34.70
2019-05-16T21:50:58.139Z,31.80
2019-05-16T21:53:30.153Z,29.13
2019-05-16T21:56:01.997Z,26.83
2019-05-16T21:58:33.745Z,26.60
2019-05-16T22:01:14.116Z,26.00
2019-05-16T22:03:48.644Z,26.87
2019-05-16T22:06:20.416Z,25.93
2019-05-16T22:08:52.499Z,25.30
2019-05-16T22:11:26.280Z,28.07
2019-05-16T22:13:59.360Z,31.63
2019-05-16T22:16:31.774Z,32.53
2019-05-16T22:19:03.426Z,29.60
2019-05-16T22:21:35.842Z,37.13
2019-05-16T22:24:07.648Z,38.93
2019-05-16T22:26:39.366Z,31.20
2019-05-16T22:29:11.115Z,29.43
2019-05-16T22:31:44.366Z,29.17
2019-05-16T22:34:16.935Z,28.70
2019-05-16T22:36:49.407Z,30.47
2019-05-16T22:39:21.220Z,28.60
2019-05-16T22:41:52.974Z,30.80
2019-05-16T22:44:26.950Z,29.13
2019-05-16T22:47:00.034Z,26.80
2019-05-16T22:49:31.885Z,28.67
2019-05-16T22:52:03.626Z,27.93
2019-05-16T22:54:37.109Z,30.20
2019-05-16T22:57:09.071Z,28.83
2019-05-16T22:59:40.841Z,28.90
2019-05-16T23:02:13.324Z,36.10
2019-05-16T23:04:47.311Z,33.30
2019-05-16T23:07:22.507Z,34.23
2019-05-16T23:09:56.298Z,36.10
2019-05-16T23:12:29.421Z,37.03
2019-05-16T23:15:01.159Z,49.47
2019-05-16T23:17:32.921Z,77.00
2019-05-16T23:20:06.354Z,65.53
2019-05-16T23:22:38.188Z,65.87
2019-05-16T23:25:10.694Z,64.50
2019-05-16T23:27:42.439Z,62.80
2019-05-16T23:30:16.469Z,60.97
2019-05-16T23:32:48.719Z,46.50
2019-05-16T23:35:20.472Z,48.20
2019-05-16T23:37:52.214Z,48.80
2019-05-16T23:40:23.961Z,40.60
2019-05-16T23:42:56.943Z,32.63
2019-05-16T23:45:28.730Z,34.13
2019-05-16T23:48:00.477Z,31.97
2019-05-16T23:50:32.227Z,31.00
2019-05-16T23:53:07.250Z,28.87
2019-05-16T23:55:42.029Z,30.33
2019-05-16T23:58:13.682Z,30.30
